createdAt,value
2017-08-04T00:01:03.815Z,69.24
2017-08-04T00:03:29.766Z,68.70
2017-08-04T00:05:55.642Z,68.06
2017-08-04T00:08:21.648Z,70.14
2017-08-04T00:10:47.489Z,71.06
2017-08-04T00:13:13.440Z,71.71
2017-08-04T00:15:39.304Z,70.54
2017-08-04T00:18:05.128Z,69.14
2017-08-04T00:20:30.988Z,69.44
2017-08-04T00:22:56.879Z,69.30
2017-08-04T00:25:22.894Z,68.51
2017-08-04T00:27:48.800Z,69.64
2017-08-04T00:30:14.629Z,71.23
2017-08-04T00:32:40.442Z,71.96
2017-08-04T00:35:06.314Z,71.15
2017-08-04T00:37:32.199Z,71.35
2017-08-04T00:39:58.108Z,70.66
2017-08-04T00:42:23.925Z,71.57
2017-08-04T00:44:49.771Z,72.27
2017-08-04T00:47:15.769Z,71.91
2017-08-04T00:49:41.636Z,71.94
2017-08-04T00:52:07.529Z,72.39
2017-08-04T00:54:33.968Z,73.21
2017-08-04T00:56:59.856Z,73.05
2017-08-04T00:59:25.671Z,72.67
2017-08-04T01:01:51.694Z,73.87
2017-08-04T01:04:17.560Z,72.25
2017-08-04T01:06:43.500Z,72.69
2017-08-04T01:09:09.307Z,72.37
2017-08-04T01:11:35.116Z,73.33
2017-08-04T01:14:00.995Z,73.23
2017-08-04T01:16:27.051Z,73.39
2017-08-04T01:18:52.952Z,73.58
2017-08-04T01:21:18.808Z,74.02
2017-08-04T01:23:44.700Z,72.96
2017-08-04T01:26:10.618Z,72.76
2017-08-04T01:28:36.444Z,72.54
2017-08-04T01:31:02.375Z,72.57
2017-08-04T01:33:28.280Z,72.43
2017-08-04T01:35:54.217Z,72.52
2017-08-04T01:38:20.160Z,72.77
2017-08-04T01:40:45.989Z,73.20
2017-08-04T01:43:11.868Z,73.41
2017-08-04T01:45:37.780Z,73.45
2017-08-04T01:48:03.614Z,73.62
2017-08-04T01:50:29.458Z,73.82
2017-08-04T01:52:55.319Z,73.92
2017-08-04T01:55:21.164Z,73.93
2017-08-04T01:57:47.088Z,74.33
2017-08-04T02:00:12.979Z,74.20
2017-08-04T02:02:38.819Z,74.50
2017-08-04T02:05:04.753Z,74.71
2017-08-04T02:07:30.635Z,74.31
2017-08-04T02:09:56.514Z,74.36
2017-08-04T02:12:22.414Z,74.09
2017-08-04T02:14:48.839Z,75.17
2017-08-04T02:17:14.710Z,74.92
2017-08-04T02:19:40.572Z,75.69
2017-08-04T02:22:06.511Z,76.78
2017-08-04T02:24:32.334Z,76.06
2017-08-04T02:26:58.216Z,76.56
2017-08-04T02:29:24.033Z,76.23
2017-08-04T02:31:50.083Z,77.32
2017-08-04T02:34:16.022Z,79.04
2017-08-04T02:36:41.931Z,78.90
2017-08-04T02:39:07.919Z,78.10
2017-08-04T02:41:33.767Z,78.26
2017-08-04T02:43:59.699Z,77.73
2017-08-04T02:46:25.610Z,76.43
2017-08-04T02:48:51.525Z,75.41
2017-08-04T02:51:17.347Z,75.22
2017-08-04T02:53:43.216Z,76.35
2017-08-04T02:56:09.044Z,76.37
2017-08-04T02:58:34.880Z,77.40
2017-08-04T03:01:00.861Z,77.36
2017-08-04T03:03:26.711Z,78.13
2017-08-04T03:05:52.533Z,77.58
2017-08-04T03:08:18.343Z,77.64
2017-08-04T03:10:44.189Z,77.21
2017-08-04T03:13:10.152Z,77.63
2017-08-04T03:15:36.081Z,78.04
2017-08-04T03:18:01.964Z,77.24
2017-08-04T03:20:27.834Z,77.39
2017-08-04T03:22:53.680Z,76.33
2017-08-04T03:25:19.533Z,76.33
2017-08-04T03:27:45.443Z,75.86
2017-08-04T03:30:11.388Z,76.15
2017-08-04T03:32:37.279Z,76.69
2017-08-04T03:35:03.151Z,76.64
2017-08-04T03:37:29.020Z,76.07
2017-08-04T03:39:54.975Z,75.59
2017-08-04T03:42:20.844Z,75.61
2017-08-04T03:44:46.664Z,76.19
2017-08-04T03:47:12.532Z,76.11
2017-08-04T03:49:38.420Z,76.38
2017-08-04T03:52:04.330Z,76.84
2017-08-04T03:54:30.172Z,76.29
2017-08-04T03:56:56.116Z,77.27
2017-08-04T03:59:21.973Z,78.63
2017-08-04T04:01:47.831Z,79.03
2017-08-04T04:04:13.735Z,78.60
2017-08-04T04:06:39.547Z,78.11
2017-08-04T04:09:05.410Z,77.49
2017-08-04T04:11:31.211Z,76.08
2017-08-04T04:13:57.024Z,76.44
2017-08-04T04:16:22.908Z,76.18
2017-08-04T04:18:48.713Z,76.74
2017-08-04T04:21:14.553Z,77.56
2017-08-04T04:23:40.544Z,77.63
2017-08-04T04:26:06.318Z,78.10
2017-08-04T04:28:32.149Z,78.88
2017-08-04T04:30:58.004Z,78.98
2017-08-04T04:33:23.819Z,79.89
2017-08-04T04:35:49.614Z,79.06
2017-08-04T04:38:15.432Z,78.85
2017-08-04T04:40:41.325Z,78.49
2017-08-04T04:43:07.149Z,78.18
2017-08-04T04:45:33.067Z,78.40
2017-08-04T04:47:58.874Z,77.58
2017-08-04T04:50:24.696Z,76.08
2017-08-04T04:52:50.568Z,74.56
2017-08-04T04:55:16.394Z,76.42
2017-08-04T04:57:42.174Z,76.59
2017-08-04T05:00:07.977Z,75.86
2017-08-04T05:02:33.808Z,73.90
2017-08-04T05:04:59.683Z,73.31
2017-08-04T05:07:25.461Z,73.41
2017-08-04T05:09:51.289Z,73.95
2017-08-04T05:12:17.284Z,74.93
2017-08-04T05:14:43.081Z,73.28
2017-08-04T05:17:08.924Z,72.87
2017-08-04T05:19:34.720Z,72.22
2017-08-04T05:22:00.555Z,72.77
2017-08-04T05:24:26.377Z,72.78
2017-08-04T05:26:52.152Z,71.83
2017-08-04T05:29:18.097Z,71.75
2017-08-04T05:31:43.893Z,72.65
2017-08-04T05:34:09.765Z,72.96
2017-08-04T05:36:35.644Z,73.85
2017-08-04T05:39:01.446Z,73.91
2017-08-04T05:41:27.292Z,74.76
2017-08-04T05:43:53.329Z,76.42
2017-08-04T05:46:19.316Z,72.94
2017-08-04T05:48:45.138Z,71.30
2017-08-04T05:51:10.926Z,70.55
2017-08-04T05:53:36.740Z,70.64
2017-08-04T05:56:02.554Z,70.46
2017-08-04T05:58:28.437Z,70.69
2017-08-04T06:00:54.280Z,69.41
2017-08-04T06:03:20.209Z,68.54
2017-08-04T06:05:46.084Z,67.87
2017-08-04T06:08:12.079Z,69.37
2017-08-04T06:10:37.907Z,72.15
2017-08-04T06:13:03.732Z,71.85
2017-08-04T06:15:29.557Z,72.16
2017-08-04T06:17:55.352Z,70.86
2017-08-04T06:20:21.178Z,71.40
2017-08-04T06:22:46.998Z,70.23
2017-08-04T06:25:12.854Z,69.62
2017-08-04T06:27:38.762Z,67.90
2017-08-04T06:30:04.650Z,67.82
2017-08-04T06:32:30.477Z,67.76
2017-08-04T06:34:56.331Z,67.77
2017-08-04T06:37:22.123Z,67.71
2017-08-04T06:39:47.936Z,67.95
2017-08-04T06:42:13.849Z,68.72
2017-08-04T06:44:39.826Z,67.98
2017-08-04T06:47:05.727Z,68.23
2017-08-04T06:49:43.911Z,66.83
2017-08-04T06:52:21.910Z,67.72
2017-08-04T06:54:59.885Z,67.10
2017-08-04T06:57:25.776Z,66.61
2017-08-04T06:59:51.568Z,66.30
2017-08-04T07:02:17.364Z,65.50
2017-08-04T07:04:43.197Z,66.21
2017-08-04T07:07:09.029Z,66.28
2017-08-04T07:09:34.843Z,66.58
2017-08-04T07:12:00.678Z,66.60
2017-08-04T07:14:26.533Z,66.37
2017-08-04T07:16:52.397Z,64.22
2017-08-04T07:19:18.222Z,65.11
2017-08-04T07:21:44.066Z,64.09
2017-08-04T07:24:09.921Z,64.39
2017-08-04T07:26:35.990Z,64.56
2017-08-04T07:29:01.791Z,64.54
2017-08-04T07:31:27.721Z,63.93
2017-08-04T07:33:53.556Z,63.23
2017-08-04T07:36:19.492Z,62.66
2017-08-04T07:38:45.386Z,61.81
2017-08-04T07:41:11.307Z,60.69
2017-08-04T07:43:37.162Z,57.49
2017-08-04T07:46:03.053Z,57.33
2017-08-04T07:48:28.920Z,55.94
2017-08-04T07:50:54.749Z,54.41
2017-08-04T07:53:20.542Z,54.52
2017-08-04T07:55:46.377Z,49.96
2017-08-04T07:58:12.206Z,49.64
2017-08-04T08:00:38.028Z,48.96
2017-08-04T08:03:03.908Z,48.83
2017-08-04T08:05:29.833Z,48.31
2017-08-04T08:07:55.745Z,48.31
2017-08-04T08:10:22.241Z,46.82
2017-08-04T08:12:48.117Z,49.33
2017-08-04T08:15:14.000Z,49.33
2017-08-04T08:17:39.894Z,43.21
2017-08-04T08:20:05.834Z,44.37
2017-08-04T08:22:31.644Z,42.96
2017-08-04T08:24:57.497Z,43.88
2017-08-04T08:27:23.464Z,44.74
2017-08-04T08:29:49.305Z,43.88
2017-08-04T08:32:15.142Z,43.30
2017-08-04T08:34:40.955Z,42.33
2017-08-04T08:37:06.770Z,41.62
2017-08-04T08:39:32.632Z,40.91
2017-08-04T08:41:58.518Z,39.90
2017-08-04T08:44:24.344Z,39.73
2017-08-04T08:46:50.289Z,40.64
2017-08-04T08:49:16.271Z,41.81
2017-08-04T08:51:42.098Z,42.07
2017-08-04T08:54:08.135Z,40.51
2017-08-04T08:56:34.074Z,40.18
2017-08-04T08:58:59.905Z,41.99
2017-08-04T09:01:25.821Z,41.33
2017-08-04T09:03:51.811Z,42.05
2017-08-04T09:06:17.812Z,40.85
2017-08-04T09:08:43.688Z,42.73
2017-08-04T09:11:09.612Z,42.47
2017-08-04T09:13:35.401Z,41.85
2017-08-04T09:16:01.372Z,41.31
2017-08-04T09:18:27.304Z,42.33
2017-08-04T09:20:53.132Z,40.60
2017-08-04T09:23:18.948Z,40.33
2017-08-04T09:25:44.807Z,40.24
2017-08-04T09:28:10.700Z,39.47
2017-08-04T09:30:36.616Z,39.36
2017-08-04T09:33:02.490Z,40.35
2017-08-04T09:35:28.388Z,41.21
2017-08-04T09:37:54.247Z,40.30
2017-08-04T09:40:20.074Z,40.68
2017-08-04T09:42:45.864Z,41.01
2017-08-04T09:45:11.689Z,40.83
2017-08-04T09:47:37.560Z,39.89
2017-08-04T09:50:03.427Z,40.28
2017-08-04T09:52:29.401Z,40.86
2017-08-04T09:54:55.230Z,40.69
2017-08-04T09:57:21.172Z,41.13
2017-08-04T09:59:46.964Z,39.70
2017-08-04T10:02:12.788Z,41.53
2017-08-04T10:04:38.619Z,41.97
2017-08-04T10:07:04.440Z,42.13
2017-08-04T10:09:30.260Z,39.55
2017-08-04T10:11:56.082Z,38.88
2017-08-04T10:14:21.903Z,38.63
2017-08-04T10:16:47.774Z,39.90
2017-08-04T10:19:13.622Z,38.07
2017-08-04T10:21:39.623Z,37.21
2017-08-04T10:24:05.429Z,36.62
2017-08-04T10:26:31.272Z,36.67
2017-08-04T10:28:57.086Z,36.29
2017-08-04T10:31:22.906Z,36.35
2017-08-04T10:33:48.731Z,36.69
2017-08-04T10:36:14.562Z,37.47
2017-08-04T10:38:40.374Z,37.04
2017-08-04T10:41:06.171Z,36.84
2017-08-04T10:43:32.038Z,37.58
2017-08-04T10:45:58.019Z,37.36
2017-08-04T10:48:24.095Z,37.31
2017-08-04T10:50:50.067Z,38.85
2017-08-04T10:53:15.876Z,37.35
2017-08-04T10:55:41.692Z,36.94
2017-08-04T10:58:07.518Z,36.14
2017-08-04T11:00:33.363Z,38.45
2017-08-04T11:02:59.164Z,38.46
2017-08-04T11:05:25.219Z,38.28
2017-08-04T11:07:51.126Z,38.54
2017-08-04T11:10:16.933Z,37.84
2017-08-04T11:12:42.768Z,38.15
2017-08-04T11:15:08.573Z,37.64
2017-08-04T11:17:34.456Z,38.29
2017-08-04T11:20:00.329Z,40.58
2017-08-04T11:22:26.255Z,39.49
2017-08-04T11:24:52.122Z,39.85
2017-08-04T11:27:17.972Z,40.25
2017-08-04T11:29:43.800Z,40.55
2017-08-04T11:32:09.647Z,41.17
2017-08-04T11:34:35.660Z,40.14
2017-08-04T11:37:01.540Z,41.45
2017-08-04T11:39:27.358Z,41.03
2017-08-04T11:41:53.218Z,42.00
2017-08-04T11:44:19.051Z,41.16
2017-08-04T11:46:44.861Z,40.49
2017-08-04T11:49:10.747Z,41.38
2017-08-04T11:51:36.721Z,42.30
2017-08-04T11:54:02.602Z,40.88
2017-08-04T11:56:28.506Z,42.52
2017-08-04T11:58:54.423Z,42.67
2017-08-04T12:01:20.296Z,41.96
2017-08-04T12:03:46.375Z,42.31
2017-08-04T12:06:12.225Z,43.03
2017-08-04T12:08:38.091Z,42.51
2017-08-04T12:11:03.926Z,41.66
2017-08-04T12:13:30.074Z,42.88
2017-08-04T12:15:55.960Z,41.65
2017-08-04T12:18:21.780Z,42.20
2017-08-04T12:20:47.600Z,41.13
2017-08-04T12:23:13.636Z,41.15
2017-08-04T12:25:39.480Z,40.75
2017-08-04T12:28:05.422Z,41.61
2017-08-04T12:30:31.319Z,43.68
2017-08-04T12:32:57.228Z,42.67
2017-08-04T12:35:23.076Z,42.12
2017-08-04T12:37:50.160Z,43.56
2017-08-04T12:40:16.022Z,42.43
2017-08-04T12:42:41.949Z,43.46
2017-08-04T12:45:08.184Z,44.08
2017-08-04T12:47:34.072Z,45.45
2017-08-04T12:49:59.877Z,47.21
2017-08-04T12:52:25.706Z,46.96
2017-08-04T12:54:51.557Z,46.84
2017-08-04T12:57:17.548Z,47.01
2017-08-04T12:59:43.595Z,46.50
2017-08-04T13:02:09.702Z,46.93
2017-08-04T13:04:35.624Z,47.66
2017-08-04T13:07:01.648Z,47.08
2017-08-04T13:09:27.689Z,47.78
2017-08-04T13:11:53.822Z,47.23
2017-08-04T13:14:19.740Z,47.40
2017-08-04T13:16:45.788Z,47.63
2017-08-04T13:19:11.672Z,46.28
2017-08-04T13:21:44.351Z,45.76
2017-08-04T13:24:10.216Z,46.49
2017-08-04T13:26:36.094Z,45.54
2017-08-04T13:29:02.026Z,46.88
2017-08-04T13:31:27.983Z,46.59
2017-08-04T13:33:53.784Z,46.56
2017-08-04T13:36:19.642Z,48.07
2017-08-04T13:38:49.294Z,45.29
2017-08-04T13:41:22.070Z,45.63
2017-08-04T13:43:47.880Z,45.49
2017-08-04T13:46:13.699Z,45.70
2017-08-04T13:48:39.527Z,44.22
2017-08-04T13:51:05.363Z,44.01
2017-08-04T13:53:31.219Z,44.20
2017-08-04T13:55:57.030Z,40.09
2017-08-04T13:58:22.884Z,42.66
2017-08-04T14:00:48.919Z,42.18
2017-08-04T14:03:14.716Z,43.08
2017-08-04T14:05:40.583Z,40.47
2017-08-04T14:08:06.487Z,40.05
2017-08-04T14:10:32.434Z,38.44
2017-08-04T14:12:58.321Z,37.85
2017-08-04T14:15:24.151Z,35.89
2017-08-04T14:17:49.998Z,36.11
2017-08-04T14:20:15.800Z,37.06
2017-08-04T14:22:41.606Z,37.26
2017-08-04T14:25:07.537Z,37.28
2017-08-04T14:27:33.340Z,37.04
2017-08-04T14:29:59.150Z,37.41
2017-08-04T14:32:25.000Z,35.83
2017-08-04T14:34:50.969Z,36.17
2017-08-04T14:37:16.790Z,35.25
2017-08-04T14:39:42.646Z,35.47
2017-08-04T14:42:08.560Z,34.97
2017-08-04T14:44:35.117Z,35.07
2017-08-04T14:47:01.024Z,33.84
2017-08-04T14:49:26.962Z,35.15
2017-08-04T14:51:52.842Z,34.70
2017-08-04T14:54:18.735Z,33.11
2017-08-04T14:56:44.647Z,32.54
2017-08-04T14:59:10.513Z,30.53
2017-08-04T15:01:36.445Z,30.22
2017-08-04T15:04:02.503Z,28.03
2017-08-04T15:06:28.385Z,28.79
2017-08-04T15:08:54.259Z,29.03
2017-08-04T15:11:20.087Z,29.71
2017-08-04T15:13:45.912Z,30.49
2017-08-04T15:16:11.748Z,30.16
2017-08-04T15:18:38.762Z,31.14
2017-08-04T15:21:04.626Z,32.35
2017-08-04T15:23:30.455Z,32.30
2017-08-04T15:25:56.356Z,31.13
2017-08-04T15:28:22.149Z,31.43
2017-08-04T15:30:47.977Z,31.71
2017-08-04T15:33:13.921Z,31.82
2017-08-04T15:35:39.860Z,31.33
2017-08-04T15:38:05.808Z,31.06
2017-08-04T15:40:31.635Z,31.58
2017-08-04T15:42:57.501Z,32.51
2017-08-04T15:45:23.545Z,31.96
2017-08-04T15:47:49.455Z,33.55
2017-08-04T15:50:15.415Z,32.94
2017-08-04T15:52:41.343Z,34.03
2017-08-04T15:55:07.249Z,34.64
2017-08-04T15:57:33.214Z,32.74
2017-08-04T15:59:59.063Z,32.13
2017-08-04T16:02:24.981Z,31.18
2017-08-04T16:04:50.971Z,31.38
2017-08-04T16:07:16.840Z,32.80
2017-08-04T16:09:42.756Z,33.94
2017-08-04T16:12:08.702Z,35.50
2017-08-04T16:14:34.508Z,36.00
2017-08-04T16:17:00.396Z,36.73
2017-08-04T16:19:26.241Z,36.06
2017-08-04T16:21:52.184Z,36.96
2017-08-04T16:24:18.061Z,36.72
2017-08-04T16:26:43.853Z,36.77
2017-08-04T16:29:09.701Z,38.13
2017-08-04T16:31:35.504Z,37.32
2017-08-04T16:34:01.300Z,36.65
2017-08-04T16:36:27.171Z,36.19
2017-08-04T16:38:53.141Z,37.27
2017-08-04T16:41:18.968Z,36.26
2017-08-04T16:43:44.766Z,37.20
2017-08-04T16:46:11.009Z,37.49
2017-08-04T16:48:36.862Z,36.93
2017-08-04T16:51:02.708Z,37.29
2017-08-04T16:53:28.638Z,37.08
2017-08-04T16:55:54.561Z,37.78
2017-08-04T16:58:20.446Z,38.22
2017-08-04T17:00:46.316Z,38.76
2017-08-04T17:03:12.173Z,39.89
2017-08-04T17:05:37.995Z,39.10
2017-08-04T17:08:03.836Z,39.54
2017-08-04T17:10:29.744Z,39.83
2017-08-04T17:12:55.646Z,39.74
2017-08-04T17:15:21.628Z,38.92
2017-08-04T17:17:47.476Z,40.47
2017-08-04T17:20:13.323Z,41.81
2017-08-04T17:22:39.357Z,41.94
2017-08-04T17:25:05.172Z,42.39
2017-08-04T17:27:31.114Z,43.18
2017-08-04T17:29:56.904Z,43.73
2017-08-04T17:32:22.764Z,44.23
2017-08-04T17:34:48.567Z,44.41
2017-08-04T17:37:14.380Z,43.99
2017-08-04T17:39:40.308Z,44.74
2017-08-04T17:42:06.287Z,44.58
2017-08-04T17:44:32.102Z,45.61
2017-08-04T17:46:57.946Z,46.73
2017-08-04T17:49:23.748Z,47.02
2017-08-04T17:51:49.563Z,46.72
2017-08-04T17:54:15.397Z,47.09
2017-08-04T17:56:41.242Z,47.52
2017-08-04T17:59:07.149Z,47.76
2017-08-04T18:01:32.981Z,47.45
2017-08-04T18:03:58.776Z,48.62
2017-08-04T18:06:24.716Z,49.41
2017-08-04T18:08:50.682Z,49.67
2017-08-04T18:11:16.486Z,49.70
2017-08-04T18:13:42.289Z,50.24
2017-08-04T18:16:08.225Z,51.42
2017-08-04T18:18:34.125Z,51.29
2017-08-04T18:21:00.017Z,51.33
2017-08-04T18:23:26.051Z,52.30
2017-08-04T18:25:51.840Z,53.08
2017-08-04T18:28:17.697Z,52.58
2017-08-04T18:30:43.615Z,52.01
2017-08-04T18:33:09.542Z,52.41
2017-08-04T18:35:35.462Z,53.88
2017-08-04T18:38:02.081Z,55.23
2017-08-04T18:40:27.946Z,54.62
2017-08-04T18:42:53.718Z,55.31
2017-08-04T18:45:19.554Z,55.71
2017-08-04T18:47:45.382Z,56.21
2017-08-04T18:50:11.285Z,55.81
2017-08-04T18:52:37.196Z,56.70
2017-08-04T18:55:03.193Z,56.98
2017-08-04T18:57:29.094Z,58.09
2017-08-04T18:59:54.948Z,59.85
2017-08-04T19:02:20.863Z,60.35
2017-08-04T19:04:46.744Z,59.87
2017-08-04T19:07:12.636Z,60.69
2017-08-04T19:09:38.678Z,60.84
2017-08-04T19:12:04.584Z,61.82
2017-08-04T19:14:33.889Z,62.27
2017-08-04T19:16:59.786Z,60.05
2017-08-04T19:19:25.613Z,60.16
2017-08-04T19:21:51.602Z,61.56
2017-08-04T19:24:17.459Z,61.04
2017-08-04T19:26:43.469Z,62.93
2017-08-04T19:29:09.491Z,62.23
2017-08-04T19:31:35.316Z,61.61
2017-08-04T19:34:01.207Z,62.04
2017-08-04T19:36:27.192Z,62.40
2017-08-04T19:38:53.087Z,63.26
2017-08-04T19:41:19.030Z,62.01
2017-08-04T19:43:44.980Z,62.70
2017-08-04T19:46:10.823Z,62.42
2017-08-04T19:48:36.655Z,61.31
2017-08-04T19:51:02.731Z,63.41
2017-08-04T19:53:28.659Z,63.59
2017-08-04T19:55:54.521Z,64.58
2017-08-04T19:58:21.313Z,65.68
2017-08-04T20:00:47.216Z,65.61
2017-08-04T20:03:13.116Z,65.70
2017-08-04T20:05:38.964Z,65.02
2017-08-04T20:08:04.828Z,65.71
2017-08-04T20:10:30.658Z,66.26
2017-08-04T20:12:56.531Z,67.17
2017-08-04T20:15:22.415Z,68.24
2017-08-04T20:17:48.250Z,68.06
2017-08-04T20:20:14.106Z,66.93
2017-08-04T20:22:39.931Z,67.12
2017-08-04T20:25:05.802Z,68.16
2017-08-04T20:27:31.729Z,68.79
2017-08-04T20:29:57.625Z,69.76
2017-08-04T20:32:23.487Z,69.11
2017-08-04T20:34:49.479Z,69.95
2017-08-04T20:37:15.393Z,69.69
2017-08-04T20:39:41.249Z,70.21
2017-08-04T20:42:07.123Z,70.67
2017-08-04T20:44:33.152Z,69.84
2017-08-04T20:46:59.076Z,69.47
2017-08-04T20:49:24.965Z,70.54
2017-08-04T20:51:50.805Z,70.69
2017-08-04T20:54:16.863Z,71.13
2017-08-04T20:56:42.772Z,72.14
2017-08-04T20:59:08.658Z,72.07
2017-08-04T21:01:34.509Z,71.74
2017-08-04T21:04:00.434Z,71.99
2017-08-04T21:06:26.298Z,71.29
2017-08-04T21:08:52.160Z,71.38
2017-08-04T21:11:18.163Z,71.24
2017-08-04T21:13:44.048Z,71.42
2017-08-04T21:16:09.960Z,70.56
2017-08-04T21:18:35.817Z,71.39
2017-08-04T21:21:01.911Z,72.21
2017-08-04T21:23:27.815Z,73.35
2017-08-04T21:25:53.657Z,73.59
2017-08-04T21:28:19.499Z,73.48
2017-08-04T21:30:45.307Z,73.34
2017-08-04T21:33:11.187Z,73.58
2017-08-04T21:35:37.090Z,73.91
2017-08-04T21:38:02.960Z,73.43
2017-08-04T21:40:28.865Z,73.54
2017-08-04T21:42:54.760Z,73.39
2017-08-04T21:45:20.589Z,73.92
2017-08-04T21:47:46.458Z,74.56
2017-08-04T21:50:12.281Z,75.07
2017-08-04T21:52:38.313Z,75.31
2017-08-04T21:55:04.175Z,76.00
2017-08-04T21:57:30.081Z,75.92
2017-08-04T21:59:56.007Z,75.72
2017-08-04T22:02:21.920Z,75.83
2017-08-04T22:04:47.791Z,76.02
2017-08-04T22:07:14.212Z,76.43
2017-08-04T22:09:40.044Z,76.45
2017-08-04T22:12:05.908Z,75.73
2017-08-04T22:14:31.863Z,75.53
2017-08-04T22:16:57.737Z,75.73
2017-08-04T22:19:23.569Z,75.97
2017-08-04T22:21:49.514Z,76.01
2017-08-04T22:24:15.347Z,76.45
2017-08-04T22:26:41.209Z,76.36
2017-08-04T22:29:07.054Z,76.32
2017-08-04T22:31:32.975Z,76.57
2017-08-04T22:33:58.839Z,76.08
2017-08-04T22:36:24.696Z,76.33
2017-08-04T22:38:50.551Z,76.16
2017-08-04T22:41:16.471Z,76.54
2017-08-04T22:43:42.412Z,76.33
2017-08-04T22:46:08.289Z,76.87
2017-08-04T22:48:34.123Z,76.56
2017-08-04T22:51:00.027Z,76.81
2017-08-04T22:53:25.943Z,77.01
2017-08-04T22:55:51.877Z,78.06
2017-08-04T22:58:17.799Z,78.01
2017-08-04T23:00:43.702Z,77.74
2017-08-04T23:03:09.564Z,77.23
2017-08-04T23:05:35.488Z,77.75
2017-08-04T23:08:01.371Z,77.77
2017-08-04T23:10:27.291Z,78.00
2017-08-04T23:12:53.151Z,78.20
2017-08-04T23:15:19.022Z,78.09
2017-08-04T23:17:44.845Z,77.88
2017-08-04T23:20:10.675Z,77.78
2017-08-04T23:22:36.576Z,78.13
2017-08-04T23:25:02.496Z,78.28
2017-08-04T23:27:28.317Z,78.35
2017-08-04T23:29:54.363Z,78.58
2017-08-04T23:32:20.269Z,78.34
2017-08-04T23:34:46.131Z,78.57
2017-08-04T23:37:11.986Z,78.58
2017-08-04T23:39:37.800Z,78.98
2017-08-04T23:42:03.666Z,78.95
2017-08-04T23:44:29.586Z,78.26
2017-08-04T23:46:55.437Z,78.77
2017-08-04T23:49:21.333Z,78.97
2017-08-04T23:51:47.238Z,79.78
2017-08-04T23:54:13.056Z,79.81
2017-08-04T23:56:38.996Z,79.28
2017-08-04T23:59:04.888Z,79.21
